Time;durP1;ratioP1;P1;durP2;ratioP2;P2;SDS_P1;SDS_P2;PMS_P1;PMS_P2;Temp;Humidity;BMP_temperature;BMP_pressure;BME280_temperature;BME280_humidity;BME280_pressure;Samples;Min_cycle;Max_cycle;Signal;HPM_P1;HPM_P2
2023/07/05 00:01:11;;;;;;;10.82;4.30;;;;;;;15.86;99.18;100351.03;4990035;28;20045;-70
2023/07/05 00:03:36;;;;;;;8.02;4.60;;;;;;;15.82;100.00;100332.13;4989818;28;20516;-70
2023/07/05 00:06:03;;;;;;;7.10;4.20;;;;;;;15.78;100.00;100319.75;4989504;28;20126;-70
2023/07/05 00:08:29;;;;;;;5.75;4.00;;;;;;;15.79;100.00;100309.63;4989253;28;20038;-70
2023/07/05 00:11:02;;;;;;;6.63;4.20;;;;;;;15.79;100.00;100298.66;4988759;28;20092;-70
2023/07/05 00:13:27;;;;;;;6.15;3.97;;;;;;;15.77;100.00;100287.88;4998525;28;20048;-70
2023/07/05 00:15:52;;;;;;;7.97;3.90;;;;;;;15.73;100.00;100286.44;5008775;28;20030;-70
2023/07/05 00:18:18;;;;;;;6.20;3.75;;;;;;;15.75;100.00;100286.28;5007876;28;20121;-70
2023/07/05 00:20:43;;;;;;;7.35;4.07;;;;;;;15.73;100.00;100286.44;4994865;28;20098;-70
2023/07/05 00:23:09;;;;;;;7.93;3.38;;;;;;;15.71;100.00;100254.72;5003931;28;20038;-70
2023/07/05 00:25:34;;;;;;;7.68;3.40;;;;;;;15.68;100.00;100244.94;4988755;28;20509;-70
2023/07/05 00:27:59;;;;;;;5.75;3.60;;;;;;;15.68;100.00;100225.75;5003799;28;20018;-70
2023/07/05 00:30:25;;;;;;;4.80;3.40;;;;;;;15.68;100.00;100228.47;4987836;28;20069;-70
2023/07/05 00:32:50;;;;;;;8.55;3.70;;;;;;;15.69;100.00;100238.41;4989338;28;20045;-70
2023/07/05 00:35:17;;;;;;;6.70;3.20;;;;;;;15.66;100.00;100218.69;4989158;28;20049;-70
2023/07/05 00:37:42;;;;;;;7.70;3.53;;;;;;;15.62;100.00;100204.41;5004147;28;20398;-70
2023/07/05 00:40:08;;;;;;;5.68;3.15;;;;;;;15.59;100.00;100181.94;5003403;28;20038;-70
2023/07/05 00:42:33;;;;;;;6.97;3.40;;;;;;;15.54;100.00;100155.84;5003544;28;20064;-70
2023/07/05 00:45:11;;;;;;;9.38;3.60;;;;;;;15.51;100.00;100172.59;4989221;28;20042;-70
2023/07/05 00:47:44;;;;;;;8.35;3.30;;;;;;;15.52;100.00;100189.91;4988732;28;20125;-70
2023/07/05 00:50:20;;;;;;;5.78;3.38;;;;;;;15.50;100.00;100192.81;4989071;28;20073;-70
2023/07/05 00:52:45;;;;;;;5.20;3.50;;;;;;;15.50;100.00;100192.81;5003681;28;20046;-70
2023/07/05 00:55:12;;;;;;;8.15;3.25;;;;;;;15.52;100.00;100193.50;5003021;28;20500;-71
2023/07/05 00:57:39;;;;;;;5.65;3.20;;;;;;;15.50;100.00;100187.34;4988316;28;20046;-70
2023/07/05 01:00:09;;;;;;;5.38;2.95;;;;;;;15.49;100.00;100173.81;4989109;28;20517;-71
2023/07/05 01:02:40;;;;;;;5.45;3.40;;;;;;;15.48;100.00;100172.06;4986800;28;20038;-71
2023/07/05 01:05:09;;;;;;;6.32;3.25;;;;;;;15.48;100.00;100166.56;5003773;28;20134;-70
2023/07/05 01:07:34;;;;;;;6.00;3.33;;;;;;;15.47;100.00;100162.97;5002808;28;20355;-71
2023/07/05 01:10:00;;;;;;;6.47;3.50;;;;;;;15.48;100.00;100155.59;5002388;28;20061;-70
2023/07/05 01:12:59;;;;;;;6.43;3.15;;;;;;;15.48;100.00;100159.25;4988810;28;20408;-70
2023/07/05 01:16:00;;;;;;;5.53;3.35;;;;;;;15.46;100.00;100152.19;4988393;28;20041;-70
2023/07/05 01:18:40;;;;;;;9.60;3.65;;;;;;;15.48;100.00;100151.00;5005358;28;20108;-70
2023/07/05 01:21:18;;;;;;;4.90;3.15;;;;;;;15.48;100.00;100156.50;4989067;28;20176;-70
2023/07/05 01:24:10;;;;;;;7.63;3.22;;;;;;;15.50;100.00;100153.59;4986894;28;20057;-70
2023/07/05 01:26:55;;;;;;;8.68;2.95;;;;;;;15.50;100.00;100162.66;4986422;28;20483;-71
2023/07/05 01:29:42;;;;;;;6.28;3.40;;;;;;;15.54;100.00;100157.72;4988301;28;20045;-70
2023/07/05 01:32:19;;;;;;;6.65;3.00;;;;;;;15.55;100.00;100165.78;4988323;28;20486;-70
2023/07/05 01:35:23;;;;;;;8.05;3.13;;;;;;;15.59;100.00;100168.22;5003184;28;20041;-70
2023/07/05 01:37:48;;;;;;;;;;;;;;;15.59;100.00;100160.84;4976525;28;20100;-70
2023/07/05 01:40:19;;;;;;;5.05;2.80;;;;;;;15.55;100.00;100162.19;4987985;28;20285;-69
2023/07/05 01:42:48;;;;;;;5.78;3.17;;;;;;;15.53;100.00;100166.97;4986789;28;20081;-69
2023/07/05 01:45:14;;;;;;;5.13;2.88;;;;;;;15.51;100.00;100174.50;4988799;28;20038;-70
2023/07/05 01:48:09;;;;;;;4.68;2.58;;;;;;;15.53;100.00;100172.47;5005220;28;20514;-70
2023/07/05 01:50:42;;;;;;;5.47;2.85;;;;;;;15.54;100.00;100175.03;4994506;28;20494;-70
2023/07/05 01:53:14;;;;;;;5.07;2.50;;;;;;;15.56;100.00;100188.56;5002357;28;20034;-70
2023/07/05 01:55:48;;;;;;;8.02;2.55;;;;;;;15.58;100.00;100183.81;5001892;28;20038;-70
2023/07/05 01:58:22;;;;;;;4.15;2.55;;;;;;;15.55;100.00;100187.72;4986862;28;20035;-70
2023/07/05 02:00:50;;;;;;;3.85;2.58;;;;;;;15.54;100.00;100190.63;4986448;28;20493;-70
2023/07/05 02:03:19;;;;;;;3.65;2.42;;;;;;;15.48;100.00;100197.63;4986905;28;20038;-70
2023/07/05 02:05:47;;;;;;;3.58;2.60;;;;;;;15.44;100.00;100206.31;5002644;28;20401;-70
2023/07/05 02:08:13;;;;;;;4.75;2.30;;;;;;;15.41;100.00;100215.69;4987550;28;20045;-69
2023/07/05 02:10:38;;;;;;;5.68;2.83;;;;;;;15.37;100.00;100214.28;4987348;28;20018;-70
2023/07/05 02:13:10;;;;;;;6.13;2.38;;;;;;;15.35;100.00;100237.41;4988784;28;20490;-70
2023/07/05 02:15:38;;;;;;;3.65;2.17;;;;;;;15.26;97.21;100237.31;5005991;28;20041;-70
2023/07/05 02:18:04;;;;;;;5.95;2.30;;;;;;;15.21;97.26;100252.53;5006991;28;20042;-70
2023/07/05 02:20:30;;;;;;;4.57;1.90;;;;;;;15.10;95.52;100253.59;4992993;28;20494;-70
2023/07/05 02:22:56;;;;;;;6.72;2.28;;;;;;;15.02;95.05;100257.13;4987051;28;20062;-70
2023/07/05 02:25:22;;;;;;;4.13;2.25;;;;;;;14.91;94.69;100261.94;4987520;28;20427;-70
2023/07/05 02:27:48;;;;;;;3.55;1.80;;;;;;;14.79;94.37;100266.78;5002100;28;20402;-70
2023/07/05 02:30:13;;;;;;;3.90;2.00;;;;;;;14.66;92.94;100272.59;4987956;28;20042;-70
2023/07/05 02:32:40;;;;;;;3.63;2.40;;;;;;;14.51;93.59;100274.97;4987167;28;20545;-70
2023/07/05 02:35:07;;;;;;;5.10;2.30;;;;;;;14.41;93.89;100292.41;4987770;28;20034;-70
2023/07/05 02:37:33;;;;;;;6.10;2.20;;;;;;;14.35;94.14;100288.38;5001261;28;20050;-70
2023/07/05 02:39:58;;;;;;;2.95;2.10;;;;;;;14.29;92.89;100294.47;5002039;28;20554;-70
2023/07/05 02:42:24;;;;;;;4.07;2.42;;;;;;;14.24;92.63;100311.31;4987650;28;20048;-70
2023/07/05 02:44:51;;;;;;;5.15;2.70;;;;;;;14.15;92.40;100278.53;4987348;28;20038;-70
2023/07/05 02:47:18;;;;;;;4.57;2.15;;;;;;;14.04;91.44;100285.91;5002468;28;20134;-70
2023/07/05 02:49:44;;;;;;;4.97;2.35;;;;;;;13.96;92.69;100293.09;5015247;28;20117;-70
2023/07/05 02:52:10;;;;;;;7.57;3.05;;;;;;;13.88;92.73;100282.88;4984877;28;20395;-70
2023/07/05 02:54:35;;;;;;;3.13;2.08;;;;;;;13.86;92.84;100286.78;4986669;28;20608;-71
2023/07/05 02:57:01;;;;;;;4.65;2.20;;;;;;;13.83;93.41;100289.81;4987331;28;20039;-70
2023/07/05 02:59:26;;;;;;;5.88;2.60;;;;;;;13.76;92.92;100290.41;4987209;28;20050;-70
2023/07/05 03:01:52;;;;;;;4.55;2.38;;;;;;;13.74;92.72;100288.81;4987551;28;20385;-70
2023/07/05 03:04:17;;;;;;;6.03;2.65;;;;;;;13.67;92.54;100285.81;5002558;28;20088;-70
2023/07/05 03:06:43;;;;;;;10.02;2.63;;;;;;;13.62;93.18;100282.66;4986452;28;20033;-71
2023/07/05 03:09:08;;;;;;;6.60;2.53;;;;;;;13.57;93.64;100289.53;4986531;28;20161;-71
2023/07/05 03:11:33;;;;;;;4.78;2.58;;;;;;;13.51;93.30;100291.84;4987010;28;20034;-71
2023/07/05 03:13:59;;;;;;;6.03;2.92;;;;;;;13.46;93.53;100288.66;5001925;28;20064;-70
2023/07/05 03:16:24;;;;;;;6.22;2.78;;;;;;;13.41;92.99;100295.56;5001877;28;20129;-70
2023/07/05 03:18:49;;;;;;;5.82;2.30;;;;;;;13.36;93.29;100295.16;5004834;28;20030;-70
2023/07/05 03:21:16;;;;;;;4.93;2.65;;;;;;;13.33;93.05;100282.63;5000885;28;20125;-70
2023/07/05 03:23:41;;;;;;;5.38;3.05;;;;;;;13.30;93.15;100290.25;4985165;28;20355;-71
2023/07/05 03:26:08;;;;;;;8.65;3.42;;;;;;;13.29;93.10;100294.88;4987381;28;20038;-70
2023/07/05 03:28:35;;;;;;;7.72;3.15;;;;;;;13.30;92.85;100282.06;4990779;28;20070;-71
2023/07/05 03:31:04;;;;;;;4.68;2.83;;;;;;;13.31;92.47;100287.38;4990188;28;20395;-71
2023/07/05 03:33:32;;;;;;;6.47;3.03;;;;;;;13.32;92.77;100288.22;5005227;28;20281;-70
2023/07/05 03:36:04;;;;;;;4.53;2.90;;;;;;;13.34;92.37;100288.97;5005006;28;20040;-70
2023/07/05 03:38:31;;;;;;;5.43;3.83;;;;;;;13.33;92.90;100289.94;5009194;28;20057;-71
2023/07/05 03:41:03;;;;;;;5.90;3.10;;;;;;;13.35;91.67;100294.28;5007342;28;20037;-71
2023/07/05 03:43:30;;;;;;;5.60;3.45;;;;;;;13.38;91.90;100296.75;4996571;28;20045;-71
2023/07/05 03:45:59;;;;;;;6.63;3.38;;;;;;;13.41;92.01;100301.03;4990094;28;20066;-70
2023/07/05 03:48:26;;;;;;;5.35;3.58;;;;;;;13.39;92.29;100298.47;4991545;28;20042;-70
2023/07/05 03:50:55;;;;;;;4.88;3.45;;;;;;;13.40;92.58;100299.31;4987971;28;20034;-70
2023/07/05 03:53:20;;;;;;;6.68;4.00;;;;;;;13.41;91.83;100295.56;4990063;28;20080;-70
2023/07/05 03:55:45;;;;;;;8.25;4.15;;;;;;;13.45;91.83;100292.41;5004806;28;20105;-70
2023/07/05 03:58:11;;;;;;;5.57;3.85;;;;;;;13.44;92.03;100290.69;5005102;28;20030;-70
2023/07/05 04:00:36;;;;;;;7.47;3.85;;;;;;;13.45;90.69;100291.56;4989744;28;20038;-71
2023/07/05 04:03:01;;;;;;;6.07;3.75;;;;;;;13.46;91.12;100280.47;5005084;28;20486;-71
2023/07/05 04:05:27;;;;;;;7.97;3.22;;;;;;;13.46;91.34;100280.47;4990009;28;20069;-70
2023/07/05 04:07:52;;;;;;;5.78;3.20;;;;;;;13.46;92.02;100279.63;5004390;28;20521;-70
2023/07/05 04:10:17;;;;;;;11.23;4.18;;;;;;;13.45;91.40;100281.47;4988820;28;20042;-71
2023/07/05 04:12:43;;;;;;;6.00;3.45;;;;;;;13.48;91.64;100281.22;4989822;28;20399;-71
2023/07/05 04:15:08;;;;;;;7.75;4.00;;;;;;;13.51;91.31;100290.97;4989620;28;20497;-71
2023/07/05 04:17:34;;;;;;;7.05;3.22;;;;;;;13.50;91.39;100283.78;4989430;28;20081;-71
2023/07/05 04:19:59;;;;;;;8.40;3.63;;;;;;;13.51;90.97;100296.44;5004027;28;20034;-70
2023/07/05 04:22:24;;;;;;;7.13;3.60;;;;;;;13.50;91.47;100287.38;4988901;28;20117;-70
2023/07/05 04:24:50;;;;;;;8.75;4.03;;;;;;;13.50;91.31;100286.53;4989016;28;20069;-70
2023/07/05 04:27:15;;;;;;;8.30;4.50;;;;;;;13.52;91.40;100301.78;4989944;28;20069;-71
2023/07/05 04:29:41;;;;;;;6.28;3.55;;;;;;;13.56;91.70;100296.00;5004503;28;20078;-71
2023/07/05 04:32:07;;;;;;;6.70;3.63;;;;;;;13.58;90.25;100288.53;5004028;28;20073;-71
2023/07/05 04:34:33;;;;;;;10.52;3.80;;;;;;;13.63;88.49;100289.84;4989626;28;20050;-71
2023/07/05 04:36:58;;;;;;;7.40;3.95;;;;;;;13.66;89.64;100291.41;5002826;28;20038;-71
2023/07/05 04:39:24;;;;;;;8.18;3.85;;;;;;;13.68;90.02;100295.72;4988684;28;20046;-71
2023/07/05 04:41:49;;;;;;;10.73;4.18;;;;;;;13.67;89.29;100279.47;5004207;28;20447;-71
2023/07/05 04:44:14;;;;;;;6.63;3.55;;;;;;;13.68;88.78;100289.41;5004704;28;20649;-71
2023/07/05 04:46:40;;;;;;;8.32;3.78;;;;;;;13.70;88.63;100296.44;5003611;28;20038;-71
2023/07/05 04:49:05;;;;;;;14.57;4.30;;;;;;;13.72;88.54;100302.63;5002322;28;20053;-71
2023/07/05 04:51:31;;;;;;;9.45;3.28;;;;;;;13.72;88.32;100297.16;5007580;28;20021;-71
2023/07/05 04:53:57;;;;;;;7.57;4.00;;;;;;;13.71;88.67;100300.91;5001343;28;20038;-71
2023/07/05 04:56:22;;;;;;;9.23;3.80;;;;;;;13.72;87.79;100294.44;4988253;28;20034;-71
2023/07/05 04:58:50;;;;;;;10.20;4.32;;;;;;;13.67;88.20;100280.34;5006178;28;20049;-71
2023/07/05 05:01:17;;;;;;;9.82;3.70;;;;;;;13.66;87.92;100295.03;5004727;28;20037;-71
2023/07/05 05:03:43;;;;;;;10.13;4.63;;;;;;;13.69;88.50;100294.72;4989206;28;20580;-71
2023/07/05 05:06:08;;;;;;;9.15;3.63;;;;;;;13.74;87.02;100305.22;4988644;28;20034;-71
2023/07/05 05:08:34;;;;;;;8.15;3.88;;;;;;;13.77;86.65;100286.66;4988020;28;20096;-71
2023/07/05 05:11:02;;;;;;;6.72;3.22;;;;;;;13.86;86.79;100305.94;4987535;28;20034;-71
2023/07/05 05:13:32;;;;;;;6.90;3.40;;;;;;;13.84;85.36;100308.78;5000913;28;20042;-70
2023/07/05 05:15:58;;;;;;;7.15;3.65;;;;;;;13.85;86.13;100315.13;5007919;28;20113;-70
2023/07/05 05:18:24;;;;;;;6.72;3.40;;;;;;;13.85;85.21;100313.28;5007910;28;20305;-70
2023/07/05 05:20:50;;;;;;;9.73;3.65;;;;;;;13.85;86.64;100305.06;4992797;28;20117;-71
2023/07/05 05:23:15;;;;;;;7.78;3.30;;;;;;;13.81;85.78;100310.97;4988400;28;20038;-71
2023/07/05 05:25:42;;;;;;;8.95;3.67;;;;;;;13.81;85.56;100314.56;4987461;28;20609;-71
2023/07/05 05:28:08;;;;;;;10.20;3.95;;;;;;;13.85;86.11;100313.28;4988178;28;20117;-70
2023/07/05 05:30:35;;;;;;;9.15;3.50;;;;;;;13.86;84.94;100306.78;5002860;28;20042;-71
2023/07/05 05:33:01;;;;;;;10.98;3.83;;;;;;;13.88;85.76;100310.22;4988190;28;20061;-70
2023/07/05 05:35:27;;;;;;;9.23;3.80;;;;;;;13.86;85.49;100295.84;4987653;28;20099;-71
2023/07/05 05:37:53;;;;;;;8.45;3.70;;;;;;;13.83;84.92;100311.69;4987565;28;20050;-71
2023/07/05 05:40:18;;;;;;;5.70;3.28;;;;;;;13.81;84.69;100302.78;4987318;28;20337;-71
2023/07/05 05:42:44;;;;;;;9.63;3.00;;;;;;;13.77;84.73;100316.72;5003273;28;20053;-70
2023/07/05 05:45:10;;;;;;;12.70;3.53;;;;;;;13.77;84.76;100324.06;4987820;28;20045;-71
2023/07/05 05:47:36;;;;;;;8.70;3.40;;;;;;;13.80;83.56;100315.56;5001937;28;20033;-71
2023/07/05 05:50:01;;;;;;;6.00;2.85;;;;;;;13.82;85.02;100316.28;4987203;28;20109;-71
2023/07/05 05:52:27;;;;;;;5.15;3.22;;;;;;;13.80;84.70;100331.97;4987209;28;20443;-71
2023/07/05 05:54:52;;;;;;;6.03;3.65;;;;;;;13.78;86.16;100320.31;4987082;28;20050;-71
2023/07/05 05:57:18;;;;;;;7.00;3.15;;;;;;;13.72;85.25;100324.50;4988071;28;20788;-71
2023/07/05 05:59:43;;;;;;;7.97;3.22;;;;;;;13.66;86.36;100332.41;4988578;28;20044;-71
2023/07/05 06:02:09;;;;;;;9.48;3.17;;;;;;;13.65;85.96;100334.28;5002401;28;20040;-71
2023/07/05 06:04:34;;;;;;;4.00;2.78;;;;;;;13.70;85.17;100350.25;4988143;28;20070;-70
2023/07/05 06:07:00;;;;;;;6.65;3.17;;;;;;;13.70;84.96;100345.63;4987047;28;20026;-71
2023/07/05 06:09:25;;;;;;;6.32;3.58;;;;;;;13.69;85.38;100352.13;5002311;28;20034;-71
2023/07/05 06:11:51;;;;;;;6.03;3.10;;;;;;;13.70;85.47;100359.31;5002635;28;20050;-71
2023/07/05 06:14:16;;;;;;;7.35;4.00;;;;;;;13.74;85.47;100366.22;4986491;28;20030;-71
2023/07/05 06:16:42;;;;;;;4.97;2.85;;;;;;;13.71;86.88;100363.78;4987863;28;20053;-71
2023/07/05 06:19:07;;;;;;;9.82;3.25;;;;;;;13.63;87.57;100349.09;4987709;28;20034;-70
2023/07/05 06:21:32;;;;;;;5.82;3.53;;;;;;;13.56;88.00;100378.84;4985821;28;20069;-70
2023/07/05 06:23:58;;;;;;;6.85;3.08;;;;;;;13.45;89.70;100371.66;4987508;28;20192;-70
2023/07/05 06:26:23;;;;;;;5.68;3.35;;;;;;;13.44;89.56;100372.69;4986852;28;20097;-70
2023/07/05 06:28:49;;;;;;;5.82;3.22;;;;;;;13.57;88.56;100372.41;4987136;28;20415;-70
2023/07/05 06:31:16;;;;;;;5.85;3.20;;;;;;;13.66;87.70;100371.56;4988160;28;20049;-70
2023/07/05 06:33:41;;;;;;;4.38;3.08;;;;;;;13.75;86.89;100369.81;4987466;28;20473;-70
2023/07/05 06:36:08;;;;;;;4.97;2.72;;;;;;;13.85;86.44;100376.16;5001922;28;20126;-70
2023/07/05 06:38:33;;;;;;;5.25;3.08;;;;;;;13.94;85.56;100375.31;4987338;28;20061;-70
2023/07/05 06:40:59;;;;;;;5.65;2.58;;;;;;;14.03;84.15;100382.66;4986632;28;20038;-70
2023/07/05 06:43:25;;;;;;;4.32;2.50;;;;;;;14.11;82.75;100397.44;5002275;28;20058;-71
2023/07/05 06:45:53;;;;;;;7.88;2.72;;;;;;;14.22;82.35;100389.97;4987189;28;20034;-70
2023/07/05 06:48:19;;;;;;;7.75;2.80;;;;;;;14.44;83.46;100401.59;4994321;28;20045;-70
2023/07/05 06:50:49;;;;;;;6.10;2.95;;;;;;;14.55;82.33;100401.47;4994219;28;20482;-70
2023/07/05 06:53:15;;;;;;;3.40;2.35;;;;;;;14.60;80.79;100407.38;4987595;28;20048;-71
2023/07/05 06:55:40;;;;;;;6.55;2.97;;;;;;;14.53;80.79;100414.41;4987092;28;20421;-70
2023/07/05 06:58:06;;;;;;;5.15;2.90;;;;;;;14.60;80.74;100404.63;5001804;28;21148;-70
2023/07/05 07:00:31;;;;;;;6.57;2.72;;;;;;;14.64;80.35;100421.59;4989293;28;20048;-70
2023/07/05 07:02:57;;;;;;;6.88;2.20;;;;;;;14.63;79.23;100414.41;4991339;28;20046;-70
2023/07/05 07:05:22;;;;;;;5.25;2.50;;;;;;;14.77;79.71;100416.66;4990582;28;20391;-70
2023/07/05 07:07:50;;;;;;;5.63;2.17;;;;;;;14.98;79.87;100421.94;5005375;28;20471;-70
2023/07/05 07:10:15;;;;;;;4.47;2.70;;;;;;;15.19;78.66;100430.78;4990889;28;20034;-71
2023/07/05 07:12:41;;;;;;;7.07;2.67;;;;;;;15.10;75.37;100445.38;5005413;28;20050;-71
2023/07/05 07:15:06;;;;;;;4.15;2.33;;;;;;;15.02;76.26;100448.88;4990789;28;20481;-70
2023/07/05 07:17:31;;;;;;;7.15;2.42;;;;;;;15.09;77.81;100451.88;4990352;28;20456;-70
2023/07/05 07:19:57;;;;;;;10.05;2.70;;;;;;;15.18;76.74;100461.06;5005044;28;20034;-70
2023/07/05 07:22:23;;;;;;;6.30;2.17;;;;;;;15.22;77.61;100457.03;4990051;28;20065;-71
2023/07/05 07:24:50;;;;;;;3.83;2.22;;;;;;;15.30;76.45;100460.75;5004997;28;20133;-71
2023/07/05 07:27:15;;;;;;;4.60;2.55;;;;;;;15.34;78.04;100463.16;4991154;28;20034;-70
2023/07/05 07:29:41;;;;;;;4.97;2.50;;;;;;;15.22;78.06;100487.19;4990577;28;20407;-70
2023/07/05 07:32:07;;;;;;;6.45;2.20;;;;;;;15.09;79.13;100495.72;4990654;28;20030;-69
2023/07/05 07:34:33;;;;;;;4.50;2.72;;;;;;;14.84;80.68;100504.59;4990673;28;20056;-70
2023/07/05 07:36:58;;;;;;;7.20;3.22;;;;;;;14.64;83.20;100503.72;4989827;28;20030;-70
2023/07/05 07:39:24;;;;;;;5.85;2.97;;;;;;;14.40;84.25;100507.75;5005004;28;20053;-71
2023/07/05 07:41:49;;;;;;;4.63;2.72;;;;;;;14.28;85.49;100501.56;4989971;28;20104;-71
2023/07/05 07:44:17;;;;;;;4.00;2.58;;;;;;;14.14;86.60;100521.16;4991014;28;20478;-70
2023/07/05 07:46:43;;;;;;;4.07;2.72;;;;;;;14.02;87.37;100523.13;4990334;28;20125;-70
2023/07/05 07:49:09;;;;;;;5.22;2.60;;;;;;;13.95;86.94;100518.38;5004811;28;20653;-70
2023/07/05 07:51:37;;;;;;;5.57;3.00;;;;;;;13.87;87.67;100532.75;4989541;28;20390;-70
2023/07/05 07:54:03;;;;;;;6.85;3.42;;;;;;;13.71;88.44;100538.75;4989677;28;20433;-70
2023/07/05 07:56:29;;;;;;;6.38;3.85;;;;;;;13.66;89.62;100541.06;5004275;28;20042;-70
2023/07/05 07:58:57;;;;;;;8.20;3.40;;;;;;;13.69;90.01;100543.47;4990705;28;20100;-70
2023/07/05 08:01:27;;;;;;;3.58;2.95;;;;;;;13.85;90.04;100536.63;4990303;28;20046;-70
2023/07/05 08:03:53;;;;;;;9.38;3.60;;;;;;;13.97;89.82;100538.25;4989728;28;20057;-71
2023/07/05 08:06:19;;;;;;;7.95;3.40;;;;;;;13.97;91.47;100541.84;4989659;28;20101;-70
2023/07/05 08:08:45;;;;;;;6.28;3.33;;;;;;;13.88;90.20;100548.16;5004650;28;20042;-70
2023/07/05 08:11:10;;;;;;;5.97;3.33;;;;;;;13.75;90.87;100542.06;4987704;28;20057;-70
2023/07/05 08:13:40;;;;;;;4.38;3.17;;;;;;;13.80;91.10;100542.50;5004306;28;20512;-70
2023/07/05 08:16:06;;;;;;;6.75;3.28;;;;;;;13.93;91.05;100540.38;4989578;28;20426;-70
2023/07/05 08:18:31;;;;;;;6.47;3.20;;;;;;;13.96;91.23;100551.06;4989498;28;20061;-70
2023/07/05 08:20:56;;;;;;;7.18;3.42;;;;;;;13.98;91.04;100549.03;4988861;28;20064;-70
2023/07/05 08:23:22;;;;;;;4.78;3.03;;;;;;;13.97;90.42;100555.50;4989019;28;20046;-70
2023/07/05 08:25:57;;;;;;;5.78;3.45;;;;;;;14.03;91.81;100556.81;4988383;28;20026;-70
2023/07/05 08:28:24;;;;;;;6.45;3.45;;;;;;;14.39;90.68;100565.38;5002027;28;20065;-70
2023/07/05 08:31:01;;;;;;;7.05;3.83;;;;;;;14.91;90.20;100572.31;5008692;28;20041;-70
2023/07/05 08:33:28;;;;;;;8.43;4.53;;;;;;;15.19;87.87;100573.28;5007239;28;20083;-70
2023/07/05 08:36:12;;;;;;;7.90;4.57;;;;;;;15.37;87.54;100572.53;4994658;28;20102;-70
2023/07/05 08:38:51;;;;;;;6.88;4.45;;;;;;;15.67;86.21;100568.72;4988511;28;20093;-70
2023/07/05 08:41:19;;;;;;;7.13;4.43;;;;;;;15.93;85.29;100569.72;4988339;28;20050;-70
2023/07/05 08:43:56;;;;;;;8.02;5.07;;;;;;;16.29;85.12;100580.78;5004363;28;20034;-70
2023/07/05 08:46:22;;;;;;;15.00;4.50;;;;;;;16.52;82.09;100587.56;4989061;28;20031;-70
2023/07/05 08:48:49;;;;;;;6.00;3.75;;;;;;;16.71;82.83;100611.25;4991011;28;20038;-70
2023/07/05 08:51:16;;;;;;;7.57;3.60;;;;;;;16.74;79.93;100610.09;4990036;28;20038;-70
2023/07/05 08:53:50;;;;;;;7.68;3.97;;;;;;;16.78;78.48;100601.38;4989058;28;20088;-70
2023/07/05 08:56:26;;;;;;;9.20;3.97;;;;;;;16.97;78.74;100619.63;4988542;28;20069;-70
2023/07/05 08:59:01;;;;;;;8.45;3.42;;;;;;;17.20;75.86;100603.47;4989161;28;20394;-71
2023/07/05 09:01:34;;;;;;;8.60;4.55;;;;;;;17.47;76.93;100629.09;4989276;28;20108;-70
2023/07/05 09:03:59;;;;;;;9.07;3.90;;;;;;;17.67;75.29;100633.34;4988673;28;20034;-70
2023/07/05 09:06:29;;;;;;;7.82;4.00;;;;;;;17.92;75.02;100615.16;4988558;28;20026;-71
2023/07/05 09:09:04;;;;;;;5.75;3.40;;;;;;;18.01;73.76;100638.94;4988405;28;20045;-71
2023/07/05 09:11:47;;;;;;;10.23;3.22;;;;;;;18.10;72.24;100635.19;4988200;28;20064;-70
2023/07/05 09:14:40;;;;;;;6.75;3.17;;;;;;;18.15;72.05;100653.97;5008577;28;20137;-70
2023/07/05 09:17:33;;;;;;;10.68;3.80;;;;;;;18.13;71.20;100641.38;5007817;28;20057;-71
2023/07/05 09:20:10;;;;;;;8.75;3.28;;;;;;;18.30;72.32;100638.53;4994743;28;20455;-71
2023/07/05 09:22:38;;;;;;;5.75;3.22;;;;;;;18.53;71.43;100649.81;4988107;28;20126;-70
2023/07/05 09:25:08;;;;;;;7.18;3.05;;;;;;;18.77;68.46;100653.69;4987759;28;20042;-70
2023/07/05 09:27:39;;;;;;;6.32;2.88;;;;;;;18.65;67.36;100668.78;4994480;28;20029;-70
2023/07/05 09:30:17;;;;;;;7.70;2.90;;;;;;;18.83;67.25;100667.66;5006517;28;20555;-70
2023/07/05 09:32:48;;;;;;;7.70;3.40;;;;;;;18.93;65.08;100673.03;5008349;28;20551;-70
2023/07/05 09:35:19;;;;;;;10.50;2.77;;;;;;;19.07;64.95;100696.28;4987703;28;20121;-71
2023/07/05 09:38:25;;;;;;;12.27;2.92;;;;;;;19.13;65.89;100678.22;4987972;28;20305;-71
2023/07/05 09:41:12;;;;;;;7.85;2.72;;;;;;;19.40;65.85;100679.75;4985557;28;20035;-70
2023/07/05 09:43:38;;;;;;;6.60;2.67;;;;;;;19.67;62.76;100695.13;4987766;28;20034;-70
2023/07/05 09:46:11;;;;;;;8.63;2.40;;;;;;;19.81;63.73;100688.91;5002764;28;20034;-71
2023/07/05 09:48:41;;;;;;;7.53;2.20;;;;;;;19.80;60.40;100718.41;4987648;28;20037;-71
2023/07/05 09:51:08;;;;;;;8.50;2.20;;;;;;;19.81;59.78;100702.72;4988263;28;20454;-71
2023/07/05 09:53:58;;;;;;;9.35;2.00;;;;;;;19.61;60.78;100714.13;4988041;28;20121;-71
2023/07/05 09:56:28;;;;;;;6.53;1.55;;;;;;;19.54;61.03;100721.34;4987259;28;20042;-70
2023/07/05 09:59:12;;;;;;;6.93;1.60;;;;;;;19.48;58.83;100718.41;5004762;28;20105;-71
2023/07/05 10:01:41;;;;;;;9.95;2.25;;;;;;;19.38;59.55;100729.59;5003576;28;20065;-71
2023/07/05 10:04:07;;;;;;;7.03;1.80;;;;;;;19.59;59.48;100729.97;4987765;28;20138;-71
2023/07/05 10:06:36;;;;;;;4.25;1.40;;;;;;;19.99;60.18;100727.38;4987625;28;20112;-70
2023/07/05 10:09:13;;;;;;;5.20;1.80;;;;;;;20.34;58.23;100740.75;4987728;28;20394;-71
2023/07/05 10:11:44;;;;;;;7.70;1.80;;;;;;;20.39;56.95;100746.63;4987312;28;20042;-71
2023/07/05 10:14:15;;;;;;;7.70;1.80;;;;;;;20.23;55.31;100732.81;4988072;28;20394;-71
2023/07/05 10:16:46;;;;;;;4.38;1.63;;;;;;;19.86;54.38;100758.28;4996792;28;20056;-71
2023/07/05 10:19:24;;;;;;;8.00;1.63;;;;;;;19.90;57.91;100765.16;5006360;28;20482;-71
2023/07/05 10:22:12;;;;;;;10.27;1.55;;;;;;;20.02;55.94;100763.78;4986865;28;20042;-71
2023/07/05 10:24:46;;;;;;;4.93;1.98;;;;;;;19.92;54.89;100776.06;4985710;28;20042;-71
2023/07/05 10:27:27;;;;;;;8.30;1.80;;;;;;;20.12;53.48;100781.03;4986922;28;20497;-71
2023/07/05 10:30:00;;;;;;;4.95;1.83;;;;;;;20.32;54.50;100778.75;4987679;28;20434;-71
2023/07/05 10:32:26;;;;;;;5.38;1.60;;;;;;;20.29;51.73;100776.34;4987733;28;20062;-70
2023/07/05 10:34:52;;;;;;;4.03;1.55;;;;;;;20.61;53.22;100793.91;4988386;28;20065;-71
2023/07/05 10:37:38;;;;;;;3.55;1.27;;;;;;;20.86;53.36;100806.59;4990483;28;20034;-71
2023/07/05 10:40:08;;;;;;;6.78;1.52;;;;;;;20.89;52.38;100811.78;4991370;28;20385;-71
2023/07/05 10:42:35;;;;;;;3.85;1.48;;;;;;;20.92;50.60;100801.41;4989781;28;20451;-71
2023/07/05 10:45:01;;;;;;;7.40;1.63;;;;;;;20.82;50.89;100802.47;4991078;28;20427;-71
2023/07/05 10:47:29;;;;;;;4.07;1.38;;;;;;;20.85;51.85;100820.63;4991352;28;20434;-71
2023/07/05 10:50:01;;;;;;;10.07;1.70;;;;;;;20.92;49.58;100821.63;4995986;28;20081;-70
2023/07/05 10:52:31;;;;;;;7.18;1.40;;;;;;;20.84;49.46;100802.28;5008826;28;20038;-71
2023/07/05 10:55:03;;;;;;;7.07;1.92;;;;;;;20.49;50.18;100818.31;5009476;28;20037;-71
2023/07/05 10:57:40;;;;;;;8.93;1.55;;;;;;;20.39;51.58;100835.03;4995615;28;20429;-71
2023/07/05 11:00:28;;;;;;;7.78;1.63;;;;;;;20.69;54.54;100817.91;4991291;28;20090;-71
2023/07/05 11:03:15;;;;;;;6.78;1.45;;;;;;;21.08;53.04;100799.44;4991162;28;20037;-71
2023/07/05 11:05:49;;;;;;;5.75;1.85;;;;;;;21.44;51.08;100812.72;4990894;28;20042;-70
2023/07/05 11:08:36;;;;;;;6.65;1.60;;;;;;;21.71;48.63;100813.25;4990914;28;20034;-71
2023/07/05 11:11:15;;;;;;;6.75;1.67;;;;;;;21.97;48.91;100821.19;4989860;28;20429;-70
2023/07/05 11:13:42;;;;;;;8.00;1.80;;;;;;;22.32;48.89;100822.44;4991077;28;20133;-71
2023/07/05 11:16:09;;;;;;;9.90;1.30;;;;;;;22.64;48.33;100826.78;4990649;28;20129;-71
2023/07/05 11:18:35;;;;;;;10.55;1.40;;;;;;;22.85;46.48;100837.97;4990706;28;20042;-70
2023/07/05 11:21:02;;;;;;;7.78;1.50;;;;;;;22.58;45.52;100831.19;4990142;28;20030;-71
2023/07/05 11:23:43;;;;;;;8.93;1.75;;;;;;;22.80;48.90;100839.59;4990412;28;20141;-71
2023/07/05 11:26:10;;;;;;;4.97;1.38;;;;;;;23.01;46.37;100856.38;4989855;28;20053;-71
2023/07/05 11:28:41;;;;;;;8.57;1.88;;;;;;;22.89;45.22;100847.66;5005075;28;20034;-71
2023/07/05 11:31:29;;;;;;;6.43;1.48;;;;;;;22.79;48.62;100860.91;4990557;28;20038;-71
2023/07/05 11:34:20;;;;;;;7.20;2.00;;;;;;;22.91;47.83;100853.03;4990592;28;20043;-71